Terminal Aerodrome Forecast
Issued by NWS

Home | Current Version | Previous Version | Text Only | Print | Product List | Glossary On
Versions: 1 2 3 4 5 6 7 8 9 10 11 12 13 14
800
FTUS45 KPSR 191120
TAFBLH
TAF
KBLH 191120Z 1912/2012 18008KT P6SM FEW060 BKN100
     FM191800 20012KT P6SM VCSH SCT050 BKN100
     FM192200 21014G28KT P6SM FEW060 SCT110
     FM200300 21012KT P6SM SCT120 BKN250=

USA.gov is the U.S. government's official web portal to all federal, state and local government web resources and services.